createdAt,value
2022-08-16T00:02:00.033Z,90.42
2022-08-16T00:04:31.244Z,90.85
2022-08-16T00:07:01.606Z,91.42
2022-08-16T00:09:33.421Z,91.40
2022-08-16T00:12:07.619Z,91.12
2022-08-16T00:14:38.562Z,90.88
2022-08-16T00:17:18.533Z,90.95
2022-08-16T00:19:53.765Z,91.04
2022-08-16T00:22:25.686Z,91.05
2022-08-16T00:24:58.594Z,91.23
2022-08-16T00:27:30.856Z,91.09
2022-08-16T00:30:19.148Z,91.38
2022-08-16T00:32:57.115Z,91.17
2022-08-16T00:35:34.888Z,90.94
2022-08-16T00:38:40.185Z,91.33
2022-08-16T00:40:58.475Z,90.98
2022-08-16T00:43:42.583Z,91.47
2022-08-16T00:46:34.365Z,91.06
2022-08-16T00:52:50.467Z,91.68
2022-08-16T00:55:22.917Z,92.62
2022-08-16T00:57:59.903Z,93.75
2022-08-16T01:00:33.928Z,95.56
2022-08-16T01:03:11.719Z,96.51
2022-08-16T01:05:44.171Z,97.86
2022-08-16T01:08:36.249Z,97.92
2022-08-16T01:11:08.945Z,98.12
2022-08-16T01:13:41.635Z,98.42
2022-08-16T01:16:20.083Z,99.06
2022-08-16T01:18:57.162Z,99.61
2022-08-16T01:21:39.793Z,99.40
2022-08-16T01:24:53.722Z,99.13
2022-08-16T01:27:29.272Z,98.57
2022-08-16T01:30:04.305Z,98.53
2022-08-16T01:32:38.992Z,97.87
2022-08-16T01:35:17.642Z,97.84
2022-08-16T01:37:54.089Z,98.07
2022-08-16T01:40:31.687Z,98.29
2022-08-16T01:43:01.852Z,99.29
2022-08-16T01:45:39.828Z,98.87
2022-08-16T01:48:19.619Z,98.73
2022-08-16T01:51:07.955Z,98.65
2022-08-16T01:53:40.603Z,98.66
2022-08-16T01:56:24.748Z,99.11
2022-08-16T01:58:58.772Z,99.17
2022-08-16T02:01:29.887Z,98.84
2022-08-16T02:04:10.868Z,98.19
2022-08-16T02:06:46.630Z,98.52
2022-08-16T02:09:18.582Z,99.03
2022-08-16T02:11:54.106Z,100.00
2022-08-16T02:14:27.461Z,99.77
2022-08-16T02:16:58.846Z,99.36
2022-08-16T02:19:59.305Z,98.17
2022-08-16T02:22:34.735Z,99.36
2022-08-16T02:25:14.822Z,99.90
2022-08-16T02:27:50.889Z,99.97
2022-08-16T02:30:35.985Z,100.00
2022-08-16T02:33:15.453Z,100.00
2022-08-16T02:35:53.854Z,100.00
2022-08-16T02:38:28.186Z,99.76
2022-08-16T02:40:59.029Z,99.26
2022-08-16T02:43:34.062Z,100.00
2022-08-16T02:46:07.636Z,100.00
2022-08-16T02:48:49.075Z,100.00
2022-08-16T02:51:23.420Z,100.00
2022-08-16T02:53:54.705Z,100.00
2022-08-16T02:56:32.128Z,99.43
2022-08-16T02:59:11.615Z,100.00
2022-08-16T03:01:44.899Z,100.00
2022-08-16T03:04:41.185Z,100.00
2022-08-16T03:07:06.440Z,100.00
2022-08-16T03:09:36.867Z,99.89
2022-08-16T03:12:08.802Z,99.76
2022-08-16T03:14:40.789Z,99.69
2022-08-16T03:17:12.502Z,100.00
2022-08-16T03:19:47.877Z,100.00
2022-08-16T03:22:30.902Z,100.00
2022-08-16T03:25:03.213Z,100.00
2022-08-16T03:27:34.820Z,100.00
2022-08-16T03:30:15.974Z,100.00
2022-08-16T03:32:51.943Z,100.00
2022-08-16T03:35:32.994Z,100.00
2022-08-16T03:38:32.587Z,99.36
2022-08-16T03:40:57.785Z,99.12
2022-08-16T03:43:50.616Z,98.69
2022-08-16T03:46:44.894Z,98.08
2022-08-16T03:49:13.247Z,98.65
2022-08-16T03:53:43.195Z,97.35
2022-08-16T03:56:20.047Z,97.22
2022-08-16T03:58:52.500Z,96.62
2022-08-16T04:01:24.026Z,96.29
2022-08-16T04:03:59.702Z,95.78
2022-08-16T04:06:31.010Z,96.37
2022-08-16T04:09:02.429Z,96.59
2022-08-16T04:11:36.708Z,96.58
2022-08-16T04:14:32.557Z,96.72
2022-08-16T04:16:58.122Z,95.84
2022-08-16T04:19:31.709Z,96.24
2022-08-16T04:22:02.345Z,96.01
2022-08-16T04:24:40.619Z,95.79
2022-08-16T04:27:11.022Z,95.30
2022-08-16T04:29:44.150Z,95.44
2022-08-16T04:32:16.682Z,95.54
2022-08-16T04:34:50.126Z,95.49
2022-08-16T04:37:21.955Z,95.92
2022-08-16T04:39:55.292Z,96.11
2022-08-16T04:42:29.823Z,95.88
2022-08-16T04:45:07.305Z,96.50
2022-08-16T04:47:37.925Z,95.97
2022-08-16T04:50:14.522Z,96.12
2022-08-16T04:52:48.040Z,96.07
2022-08-16T04:55:31.846Z,95.20
2022-08-16T04:58:44.781Z,95.05
2022-08-16T05:01:01.108Z,95.28
2022-08-16T05:03:32.583Z,94.82
2022-08-16T05:06:05.204Z,94.37
2022-08-16T05:08:39.441Z,94.32
2022-08-16T05:11:20.583Z,94.16
2022-08-16T05:13:51.914Z,93.62
2022-08-16T05:16:27.448Z,93.65
2022-08-16T05:19:03.503Z,93.38
2022-08-16T05:21:38.388Z,93.44
2022-08-16T05:24:09.729Z,93.85
2022-08-16T05:26:43.519Z,93.88
2022-08-16T05:29:21.467Z,93.42
2022-08-16T05:31:52.922Z,93.63
2022-08-16T05:34:23.403Z,94.16
2022-08-16T05:36:58.686Z,93.32
2022-08-16T05:39:30.528Z,93.40
2022-08-16T05:42:05.068Z,92.94
2022-08-16T05:44:35.683Z,92.29
2022-08-16T05:47:06.006Z,92.13
2022-08-16T05:49:39.861Z,91.43
2022-08-16T05:52:13.485Z,90.82
2022-08-16T05:55:00.927Z,90.35
2022-08-16T05:57:34.496Z,90.12
2022-08-16T06:00:10.481Z,89.07
2022-08-16T06:02:40.690Z,88.61
2022-08-16T06:05:11.971Z,87.37
2022-08-16T06:07:44.702Z,86.06
2022-08-16T06:10:32.242Z,85.13
2022-08-16T06:13:04.869Z,84.41
2022-08-16T06:15:35.365Z,84.26
2022-08-16T06:18:07.026Z,83.72
2022-08-16T06:20:37.669Z,82.40
2022-08-16T06:23:27.806Z,80.54
2022-08-16T06:26:02.622Z,78.59
2022-08-16T06:28:39.182Z,73.63
2022-08-16T06:31:12.333Z,69.09
2022-08-16T06:33:44.646Z,66.23
2022-08-16T06:36:17.320Z,66.49
2022-08-16T06:38:56.085Z,67.05
2022-08-16T06:41:27.538Z,67.19
2022-08-16T06:43:59.314Z,67.03
2022-08-16T06:46:34.647Z,66.03
2022-08-16T06:49:10.806Z,64.96
2022-08-16T06:53:41.823Z,64.80
2022-08-16T06:56:14.206Z,64.64
2022-08-16T06:58:54.985Z,64.22
2022-08-16T07:01:44.997Z,63.91
2022-08-16T07:04:31.649Z,63.04
2022-08-16T07:07:02.952Z,62.52
2022-08-16T07:09:34.903Z,60.54
2022-08-16T07:12:06.105Z,62.47
2022-08-16T07:14:36.925Z,62.15
2022-08-16T07:17:11.325Z,61.68
2022-08-16T07:20:03.214Z,61.46
2022-08-16T07:22:37.345Z,60.61
2022-08-16T07:25:25.645Z,60.78
2022-08-16T07:27:55.849Z,60.76
2022-08-16T07:30:39.396Z,60.43
2022-08-16T07:33:20.300Z,59.71
2022-08-16T07:36:10.384Z,58.65
2022-08-16T07:38:40.716Z,58.86
2022-08-16T07:41:13.786Z,58.53
2022-08-16T07:43:47.494Z,58.31
2022-08-16T07:46:37.784Z,56.13
2022-08-16T07:49:11.251Z,55.45
2022-08-16T07:51:42.446Z,56.90
2022-08-16T07:54:21.262Z,54.59
2022-08-16T07:56:53.116Z,55.77
2022-08-16T07:59:24.971Z,54.11
2022-08-16T08:02:13.229Z,54.73
2022-08-16T08:04:51.216Z,51.81
2022-08-16T08:07:21.585Z,54.89
2022-08-16T08:09:52.607Z,53.90
2022-08-16T08:12:43.705Z,53.33
2022-08-16T08:15:14.826Z,53.60
2022-08-16T08:17:55.606Z,52.28
2022-08-16T08:20:33.837Z,52.90
2022-08-16T08:23:04.993Z,52.14
2022-08-16T08:25:53.947Z,50.34
2022-08-16T08:28:26.762Z,52.15
2022-08-16T08:31:01.655Z,51.16
2022-08-16T08:33:33.977Z,52.89
2022-08-16T08:36:08.855Z,50.99
2022-08-16T08:38:45.188Z,52.68
2022-08-16T08:41:19.045Z,52.41
2022-08-16T08:43:51.468Z,52.73
2022-08-16T08:46:22.566Z,50.68
2022-08-16T08:48:59.584Z,50.16
2022-08-16T08:51:36.821Z,51.41
2022-08-16T08:54:09.738Z,49.68
2022-08-16T08:56:45.403Z,49.72
2022-08-16T08:59:20.456Z,50.99
2022-08-16T09:01:57.208Z,50.18
2022-08-16T09:04:30.149Z,48.71
2022-08-16T09:07:01.232Z,49.91
2022-08-16T09:09:33.610Z,49.12
2022-08-16T09:12:06.939Z,47.22
2022-08-16T09:14:49.317Z,48.74
2022-08-16T09:17:38.275Z,47.89
2022-08-16T09:20:16.584Z,48.95
2022-08-16T09:22:51.337Z,46.74
2022-08-16T09:25:26.357Z,48.41
2022-08-16T09:28:09.412Z,48.01
2022-08-16T09:30:44.053Z,47.19
2022-08-16T09:33:20.056Z,45.97
2022-08-16T09:35:54.366Z,47.64
2022-08-16T09:38:31.902Z,44.90
2022-08-16T09:41:06.482Z,46.42
2022-08-16T09:43:59.519Z,44.73
2022-08-16T09:46:45.306Z,45.49
2022-08-16T09:49:20.313Z,45.37
2022-08-16T09:53:43.253Z,45.35
2022-08-16T09:56:26.709Z,44.63
2022-08-16T09:59:03.591Z,44.41
2022-08-16T10:01:36.752Z,43.35
2022-08-16T10:04:32.975Z,42.89
2022-08-16T10:09:54.080Z,42.12
2022-08-16T10:12:45.965Z,42.57
2022-08-16T10:15:21.614Z,40.48
2022-08-16T10:18:00.196Z,41.04
2022-08-16T10:20:35.262Z,38.50
2022-08-16T10:23:08.416Z,41.96
2022-08-16T10:27:18.631Z,41.23
2022-08-16T10:28:40.345Z,41.00
2022-08-16T10:31:16.719Z,40.99
2022-08-16T10:34:05.162Z,39.63
2022-08-16T10:36:55.207Z,39.98
2022-08-16T10:39:25.382Z,40.86
2022-08-16T10:41:57.105Z,43.20
2022-08-16T10:44:29.206Z,42.22
2022-08-16T10:46:59.483Z,43.32
2022-08-16T10:49:32.709Z,41.87
2022-08-16T10:52:18.027Z,42.96
2022-08-16T10:57:41.666Z,42.00
2022-08-16T11:00:22.525Z,40.96
2022-08-16T11:02:58.304Z,43.01
2022-08-16T11:05:59.061Z,41.24
2022-08-16T11:08:35.916Z,42.08
2022-08-16T11:11:16.912Z,42.06
2022-08-16T11:14:11.087Z,39.42
2022-08-16T11:19:33.597Z,38.88
2022-08-16T11:22:47.268Z,40.23
2022-08-16T11:25:59.617Z,39.60
2022-08-16T11:28:06.164Z,40.37
2022-08-16T11:30:39.618Z,38.36
2022-08-16T11:33:11.463Z,39.69
2022-08-16T11:35:44.097Z,39.03
2022-08-16T11:38:47.665Z,37.51
2022-08-16T11:41:07.621Z,39.10
2022-08-16T11:43:42.105Z,37.57
2022-08-16T11:46:43.639Z,38.59
2022-08-16T11:49:13.449Z,39.10
2022-08-16T11:51:45.902Z,37.81
2022-08-16T11:54:20.452Z,35.52
2022-08-16T11:56:57.304Z,36.04
2022-08-16T11:59:29.696Z,35.54
2022-08-16T12:02:11.570Z,37.07
2022-08-16T12:04:52.162Z,37.19
2022-08-16T12:07:24.940Z,35.98
2022-08-16T12:09:54.933Z,36.77
2022-08-16T12:12:28.507Z,35.60
2022-08-16T12:15:00.071Z,33.71
2022-08-16T12:17:33.368Z,34.92
2022-08-16T12:20:07.602Z,34.69
2022-08-16T12:22:38.463Z,34.65
2022-08-16T12:25:12.421Z,35.78
2022-08-16T12:27:43.105Z,34.47
2022-08-16T12:30:26.464Z,36.90
2022-08-16T12:33:04.266Z,37.42
2022-08-16T12:35:38.844Z,38.25
2022-08-16T12:38:40.767Z,39.60
2022-08-16T12:41:00.530Z,39.71
2022-08-16T12:43:31.984Z,41.46
2022-08-16T12:46:02.291Z,42.57
2022-08-16T12:48:53.661Z,41.37
2022-08-16T12:53:42.222Z,36.36
2022-08-16T12:56:14.102Z,35.23
2022-08-16T12:58:50.560Z,36.27
2022-08-16T13:01:25.038Z,36.93
2022-08-16T13:04:11.428Z,36.35
2022-08-16T13:06:44.674Z,35.83
2022-08-16T13:09:23.651Z,36.46
2022-08-16T13:12:03.489Z,35.62
2022-08-16T13:14:38.485Z,36.21
2022-08-16T13:17:18.784Z,36.86
2022-08-16T13:22:42.839Z,35.57
2022-08-16T13:25:21.295Z,35.44
2022-08-16T13:28:02.368Z,36.38
2022-08-16T13:30:41.075Z,35.83
2022-08-16T13:33:16.484Z,35.06
2022-08-16T13:35:56.245Z,34.93
2022-08-16T13:38:32.677Z,35.19
2022-08-16T13:41:11.305Z,35.37
2022-08-16T13:43:43.522Z,36.99
2022-08-16T13:46:13.706Z,35.78
2022-08-16T13:48:45.131Z,36.49
2022-08-16T13:51:17.532Z,37.64
2022-08-16T13:53:54.506Z,37.22
2022-08-16T13:56:37.923Z,37.80
2022-08-16T13:59:19.530Z,38.07
2022-08-16T14:01:55.079Z,38.90
2022-08-16T14:04:31.556Z,39.74
2022-08-16T14:07:03.874Z,40.58
2022-08-16T14:09:36.885Z,40.86
2022-08-16T14:12:21.285Z,41.85
2022-08-16T14:14:56.334Z,41.70
2022-08-16T14:17:29.866Z,43.07
2022-08-16T14:20:14.476Z,43.72
2022-08-16T14:22:52.383Z,44.58
2022-08-16T14:25:26.831Z,46.22
2022-08-16T14:27:58.841Z,46.20
2022-08-16T14:30:29.797Z,46.56
2022-08-16T14:33:00.494Z,47.91
2022-08-16T14:35:48.504Z,47.44
2022-08-16T14:38:23.928Z,47.95
2022-08-16T14:40:54.959Z,48.26
2022-08-16T14:43:29.762Z,48.47
2022-08-16T14:46:01.244Z,48.29
2022-08-16T14:48:31.949Z,46.60
2022-08-16T14:51:03.227Z,45.32
2022-08-16T14:53:33.321Z,44.56
2022-08-16T14:56:03.415Z,45.42
2022-08-16T14:58:38.064Z,44.98
2022-08-16T15:01:09.715Z,44.90
2022-08-16T15:03:44.454Z,45.70
2022-08-16T15:06:16.277Z,43.10
2022-08-16T15:08:46.868Z,45.22
2022-08-16T15:11:16.843Z,44.31
2022-08-16T15:13:49.430Z,43.70
2022-08-16T15:16:21.606Z,43.20
2022-08-16T15:19:00.051Z,42.46
2022-08-16T15:21:31.547Z,42.44
2022-08-16T15:24:02.449Z,41.79
2022-08-16T15:26:45.303Z,42.46
2022-08-16T15:29:19.267Z,41.98
2022-08-16T15:31:49.466Z,40.83
2022-08-16T15:34:32.021Z,41.44
2022-08-16T15:37:03.182Z,42.27
2022-08-16T15:39:39.401Z,42.60
2022-08-16T15:42:15.631Z,42.55
2022-08-16T15:44:59.152Z,43.27
2022-08-16T15:47:29.244Z,44.34
2022-08-16T15:49:59.584Z,44.59
2022-08-16T15:53:41.948Z,44.28
2022-08-16T15:56:13.385Z,45.56
2022-08-16T15:58:43.911Z,44.54
2022-08-16T16:01:21.764Z,44.33
2022-08-16T16:03:53.985Z,44.01
2022-08-16T16:06:28.825Z,44.75
2022-08-16T16:09:00.706Z,44.92
2022-08-16T16:11:31.237Z,44.87
2022-08-16T16:14:01.664Z,44.98
2022-08-16T16:16:36.290Z,44.30
2022-08-16T16:19:06.542Z,44.86
2022-08-16T16:21:37.633Z,44.96
2022-08-16T16:24:21.544Z,44.82
2022-08-16T16:26:55.187Z,45.69
2022-08-16T16:29:26.342Z,46.27
2022-08-16T16:31:59.490Z,46.58
2022-08-16T16:34:32.137Z,46.96
2022-08-16T16:37:03.562Z,47.28
2022-08-16T16:39:35.996Z,47.68
2022-08-16T16:42:06.422Z,47.83
2022-08-16T16:44:40.984Z,47.21
2022-08-16T16:47:21.201Z,47.14
2022-08-16T16:49:51.245Z,47.47
2022-08-16T16:52:43.367Z,47.33
2022-08-16T16:55:16.903Z,47.55
2022-08-16T16:58:04.021Z,47.49
2022-08-16T17:00:38.626Z,47.90
2022-08-16T17:03:17.050Z,48.06
2022-08-16T17:05:57.348Z,49.02
2022-08-16T17:08:31.085Z,48.55
2022-08-16T17:11:03.008Z,47.84
2022-08-16T17:13:34.810Z,47.55
2022-08-16T17:16:05.226Z,47.75
2022-08-16T17:19:16.626Z,48.03
2022-08-16T17:21:26.301Z,47.77
2022-08-16T17:24:00.495Z,47.41
2022-08-16T17:26:34.304Z,47.27
2022-08-16T17:29:11.124Z,47.86
2022-08-16T17:34:32.024Z,48.60
2022-08-16T17:37:08.038Z,51.35
2022-08-16T17:39:27.057Z,47.89
2022-08-16T17:39:54.794Z,50.83
2022-08-16T17:42:31.043Z,50.04
2022-08-16T17:45:01.570Z,52.83
2022-08-16T17:47:31.602Z,53.55
2022-08-16T17:50:02.407Z,55.22
2022-08-16T17:52:32.584Z,56.44
2022-08-16T17:55:08.656Z,57.24
2022-08-16T17:57:40.168Z,57.72
2022-08-16T18:00:18.280Z,58.54
2022-08-16T18:02:52.705Z,59.01
2022-08-16T18:05:23.144Z,59.51
2022-08-16T18:07:53.927Z,59.73
2022-08-16T18:10:32.761Z,59.46
2022-08-16T18:13:05.268Z,61.20
2022-08-16T18:15:38.162Z,61.21
2022-08-16T18:18:08.980Z,63.08
2022-08-16T18:20:56.254Z,62.79
2022-08-16T18:23:29.128Z,63.11
2022-08-16T18:26:01.545Z,63.02
2022-08-16T18:28:35.485Z,63.37
2022-08-16T18:31:08.006Z,63.92
2022-08-16T18:33:43.530Z,63.90
2022-08-16T18:36:20.893Z,64.67
2022-08-16T18:38:52.288Z,65.53
2022-08-16T18:41:24.687Z,67.14
2022-08-16T18:44:25.443Z,66.78
2022-08-16T18:46:50.997Z,67.27
2022-08-16T18:49:22.442Z,67.07
2022-08-16T18:53:41.388Z,67.46
2022-08-16T18:56:11.724Z,68.09
2022-08-16T18:58:42.657Z,68.15
2022-08-16T19:01:12.874Z,68.76
2022-08-16T19:03:43.165Z,68.83
2022-08-16T19:06:17.407Z,68.66
2022-08-16T19:08:49.071Z,68.62
2022-08-16T19:11:23.749Z,68.82
2022-08-16T19:13:54.132Z,68.81
2022-08-16T19:16:24.691Z,68.65
2022-08-16T19:18:54.683Z,69.47
2022-08-16T19:21:24.834Z,69.55
2022-08-16T19:23:56.738Z,69.95
2022-08-16T19:26:27.946Z,70.22
2022-08-16T19:28:59.846Z,69.58
2022-08-16T19:31:37.135Z,70.81
2022-08-16T19:34:08.714Z,71.37
2022-08-16T19:36:41.282Z,72.22
2022-08-16T19:39:17.182Z,71.22
2022-08-16T19:41:52.105Z,71.24
2022-08-16T19:44:24.746Z,71.56
2022-08-16T19:46:55.210Z,71.22
2022-08-16T19:49:25.374Z,71.66
2022-08-16T19:51:55.594Z,71.81
2022-08-16T19:54:27.224Z,72.01
2022-08-16T19:56:57.387Z,71.86
2022-08-16T19:59:40.407Z,73.58
2022-08-16T20:02:35.664Z,73.17
2022-08-16T20:05:08.405Z,73.20
2022-08-16T20:07:38.484Z,73.48
2022-08-16T20:10:11.947Z,73.89
2022-08-16T20:12:42.003Z,73.62
2022-08-16T20:15:16.567Z,73.32
2022-08-16T20:17:48.695Z,73.46
2022-08-16T20:20:23.348Z,73.22
2022-08-16T20:22:57.944Z,73.24
2022-08-16T20:25:33.411Z,73.27
2022-08-16T20:28:11.543Z,73.46
2022-08-16T20:31:02.767Z,73.85
2022-08-16T20:33:32.832Z,74.38
2022-08-16T20:36:02.855Z,74.06
2022-08-16T20:38:35.724Z,74.55
2022-08-16T20:41:07.484Z,74.75
2022-08-16T20:43:37.836Z,74.82
2022-08-16T20:46:08.430Z,75.54
2022-08-16T20:48:38.486Z,76.00
2022-08-16T20:51:10.918Z,76.31
2022-08-16T20:53:41.865Z,76.26
2022-08-16T20:56:14.309Z,76.06
2022-08-16T20:58:44.464Z,76.34
2022-08-16T21:01:14.448Z,76.09
2022-08-16T21:03:45.031Z,75.85
2022-08-16T21:06:16.512Z,76.23
2022-08-16T21:08:51.636Z,76.39
2022-08-16T21:11:28.491Z,76.88
2022-08-16T21:14:00.781Z,76.89
2022-08-16T21:16:32.607Z,77.23
2022-08-16T21:19:02.949Z,77.03
2022-08-16T21:21:33.758Z,77.27
2022-08-16T21:24:04.939Z,77.52
2022-08-16T21:26:39.039Z,77.63
2022-08-16T21:29:14.207Z,77.54
2022-08-16T21:31:47.455Z,77.45
2022-08-16T21:34:17.716Z,77.51
2022-08-16T21:36:49.111Z,77.86
2022-08-16T21:39:19.610Z,78.32
2022-08-16T21:41:51.356Z,78.32
2022-08-16T21:44:21.586Z,78.57
2022-08-16T21:46:52.134Z,78.38
2022-08-16T21:49:22.503Z,78.14
2022-08-16T21:53:42.158Z,78.79
2022-08-16T21:56:16.774Z,78.94
2022-08-16T21:58:52.976Z,79.17
2022-08-16T22:01:24.842Z,78.75
2022-08-16T22:04:01.619Z,78.73
2022-08-16T22:06:48.288Z,78.56
2022-08-16T22:09:24.603Z,79.05
2022-08-16T22:11:54.630Z,79.22
2022-08-16T22:14:24.765Z,79.60
2022-08-16T22:16:55.971Z,79.73
2022-08-16T22:19:26.665Z,79.74
2022-08-16T22:21:57.070Z,79.71
2022-08-16T22:24:28.605Z,80.03
2022-08-16T22:26:58.609Z,80.08
2022-08-16T22:29:28.761Z,79.89
2022-08-16T22:31:59.068Z,80.12
2022-08-16T22:34:29.148Z,80.12
2022-08-16T22:36:59.356Z,80.35
2022-08-16T22:39:31.866Z,80.56
2022-08-16T22:42:08.936Z,80.54
2022-08-16T22:44:45.663Z,80.41
2022-08-16T22:47:16.346Z,80.60
2022-08-16T22:49:48.328Z,80.63
2022-08-16T22:52:40.983Z,80.41
2022-08-16T22:55:11.224Z,81.02
2022-08-16T22:57:41.147Z,81.07
2022-08-16T23:00:16.191Z,81.25
2022-08-16T23:03:03.195Z,81.36
2022-08-16T23:05:39.266Z,81.49
2022-08-16T23:08:12.723Z,81.37
2022-08-16T23:10:45.468Z,81.63
2022-08-16T23:13:17.428Z,81.69
2022-08-16T23:15:52.142Z,81.55
2022-08-16T23:18:26.816Z,81.73
2022-08-16T23:21:00.694Z,81.66
2022-08-16T23:23:31.713Z,81.81
2022-08-16T23:26:44.188Z,81.75
2022-08-16T23:28:53.509Z,81.45
2022-08-16T23:31:24.075Z,81.48
2022-08-16T23:33:54.206Z,81.43
2022-08-16T23:36:24.283Z,81.98
2022-08-16T23:38:54.353Z,81.94
2022-08-16T23:41:25.927Z,81.85
2022-08-16T23:43:55.906Z,82.20
2022-08-16T23:46:25.985Z,82.41
2022-08-16T23:50:00.233Z,82.38
2022-08-16T23:51:46.083Z,82.80
2022-08-16T23:54:16.006Z,82.30
2022-08-16T23:56:47.857Z,82.61
2022-08-16T23:59:18.064Z,82.79
